sensor_id;sensor_type;location;lat;lon;timestamp;temperature;humidity
23544;DHT22;11950;51.230;4.012;2024-03-29T00:01:28;12.00;99.90
23544;DHT22;11950;51.230;4.012;2024-03-29T00:03:54;11.90;99.90
23544;DHT22;11950;51.230;4.012;2024-03-29T00:06:21;11.90;99.90
23544;DHT22;11950;51.230;4.012;2024-03-29T00:08:47;11.90;99.90
23544;DHT22;11950;51.230;4.012;2024-03-29T00:11:13;11.90;99.90
23544;DHT22;11950;51.230;4.012;2024-03-29T00:13:40;11.90;99.90
23544;DHT22;11950;51.230;4.012;2024-03-29T00:16:06;11.90;99.90
23544;DHT22;11950;51.230;4.012;2024-03-29T00:18:32;11.80;99.90
23544;DHT22;11950;51.230;4.012;2024-03-29T00:20:59;11.80;99.90
23544;DHT22;11950;51.230;4.012;2024-03-29T00:23:25;11.80;99.90
23544;DHT22;11950;51.230;4.012;2024-03-29T00:25:51;11.80;99.90
23544;DHT22;11950;51.230;4.012;2024-03-29T00:28:17;11.80;99.90
23544;DHT22;11950;51.230;4.012;2024-03-29T00:30:44;11.80;99.90
23544;DHT22;11950;51.230;4.012;2024-03-29T00:33:10;11.80;99.90
23544;DHT22;11950;51.230;4.012;2024-03-29T00:35:37;11.80;99.90
23544;DHT22;11950;51.230;4.012;2024-03-29T00:38:03;11.90;99.90
23544;DHT22;11950;51.230;4.012;2024-03-29T00:40:30;11.90;99.90
23544;DHT22;11950;51.230;4.012;2024-03-29T00:42:56;11.90;99.90
23544;DHT22;11950;51.230;4.012;2024-03-29T00:45:22;11.90;99.90
23544;DHT22;11950;51.230;4.012;2024-03-29T00:47:48;11.90;99.90
23544;DHT22;11950;51.230;4.012;2024-03-29T00:50:14;11.90;99.90
23544;DHT22;11950;51.230;4.012;2024-03-29T00:52:41;11.90;99.90
23544;DHT22;11950;51.230;4.012;2024-03-29T00:55:07;11.90;99.90
23544;DHT22;11950;51.230;4.012;2024-03-29T00:57:34;11.90;99.90
23544;DHT22;11950;51.230;4.012;2024-03-29T01:00:00;11.90;99.90
23544;DHT22;11950;51.230;4.012;2024-03-29T01:02:26;11.90;99.90
23544;DHT22;11950;51.230;4.012;2024-03-29T01:04:53;11.80;99.90
23544;DHT22;11950;51.230;4.012;2024-03-29T01:07:19;11.80;99.90
23544;DHT22;11950;51.230;4.012;2024-03-29T01:09:45;11.80;99.90
23544;DHT22;11950;51.230;4.012;2024-03-29T01:12:11;11.80;99.90
23544;DHT22;11950;51.230;4.012;2024-03-29T01:14:37;11.80;99.90
23544;DHT22;11950;51.230;4.012;2024-03-29T01:17:04;11.80;99.90
23544;DHT22;11950;51.230;4.012;2024-03-29T01:19:30;11.80;99.90
23544;DHT22;11950;51.230;4.012;2024-03-29T01:21:56;11.80;99.90
23544;DHT22;11950;51.230;4.012;2024-03-29T01:24:23;11.80;99.90
23544;DHT22;11950;51.230;4.012;2024-03-29T01:26:49;11.80;99.90
23544;DHT22;11950;51.230;4.012;2024-03-29T01:29:15;11.80;99.90
23544;DHT22;11950;51.230;4.012;2024-03-29T01:31:42;11.70;99.90
23544;DHT22;11950;51.230;4.012;2024-03-29T01:34:08;11.80;99.90
23544;DHT22;11950;51.230;4.012;2024-03-29T01:36:35;11.80;99.90
23544;DHT22;11950;51.230;4.012;2024-03-29T01:39:01;11.80;99.90
23544;DHT22;11950;51.230;4.012;2024-03-29T01:41:27;11.80;99.90
23544;DHT22;11950;51.230;4.012;2024-03-29T01:43:54;11.80;99.90
23544;DHT22;11950;51.230;4.012;2024-03-29T01:46:21;11.90;99.90
23544;DHT22;11950;51.230;4.012;2024-03-29T01:48:51;11.90;99.90
23544;DHT22;11950;51.230;4.012;2024-03-29T01:51:18;11.90;99.90
23544;DHT22;11950;51.230;4.012;2024-03-29T01:53:47;11.90;99.90
23544;DHT22;11950;51.230;4.012;2024-03-29T01:56:14;11.90;99.90
23544;DHT22;11950;51.230;4.012;2024-03-29T01:58:42;11.90;99.90
23544;DHT22;11950;51.230;4.012;2024-03-29T02:01:12;11.90;99.90
23544;DHT22;11950;51.230;4.012;2024-03-29T02:03:39;12.00;99.90
23544;DHT22;11950;51.230;4.012;2024-03-29T02:06:06;11.90;99.90
23544;DHT22;11950;51.230;4.012;2024-03-29T02:08:34;11.90;99.90
23544;DHT22;11950;51.230;4.012;2024-03-29T02:11:00;11.80;99.90
23544;DHT22;11950;51.230;4.012;2024-03-29T02:13:26;11.90;99.90
23544;DHT22;11950;51.230;4.012;2024-03-29T02:15:53;11.90;99.90
23544;DHT22;11950;51.230;4.012;2024-03-29T02:18:19;11.90;99.90
23544;DHT22;11950;51.230;4.012;2024-03-29T02:20:45;11.90;99.90
23544;DHT22;11950;51.230;4.012;2024-03-29T02:23:16;11.90;99.90
23544;DHT22;11950;51.230;4.012;2024-03-29T02:25:44;12.00;99.90
23544;DHT22;11950;51.230;4.012;2024-03-29T02:28:10;12.00;99.90
23544;DHT22;11950;51.230;4.012;2024-03-29T02:30:37;12.00;99.90
23544;DHT22;11950;51.230;4.012;2024-03-29T02:33:03;12.00;99.90
23544;DHT22;11950;51.230;4.012;2024-03-29T02:35:29;12.00;99.90
23544;DHT22;11950;51.230;4.012;2024-03-29T02:37:56;12.00;99.90
23544;DHT22;11950;51.230;4.012;2024-03-29T02:40:23;11.90;99.90
23544;DHT22;11950;51.230;4.012;2024-03-29T02:42:49;12.00;99.90
23544;DHT22;11950;51.230;4.012;2024-03-29T02:45:16;12.00;99.90
23544;DHT22;11950;51.230;4.012;2024-03-29T02:47:43;11.90;99.90
23544;DHT22;11950;51.230;4.012;2024-03-29T02:50:10;11.90;99.90
23544;DHT22;11950;51.230;4.012;2024-03-29T02:52:37;11.90;99.90
23544;DHT22;11950;51.230;4.012;2024-03-29T02:55:03;11.90;99.90
23544;DHT22;11950;51.230;4.012;2024-03-29T02:57:30;11.90;99.90
23544;DHT22;11950;51.230;4.012;2024-03-29T02:59:56;11.80;99.90
23544;DHT22;11950;51.230;4.012;2024-03-29T03:02:22;11.80;99.90
23544;DHT22;11950;51.230;4.012;2024-03-29T03:04:48;11.90;99.90
23544;DHT22;11950;51.230;4.012;2024-03-29T03:07:15;11.80;99.90
23544;DHT22;11950;51.230;4.012;2024-03-29T03:09:59;11.90;99.90
23544;DHT22;11950;51.230;4.012;2024-03-29T03:12:45;11.80;99.90
23544;DHT22;11950;51.230;4.012;2024-03-29T03:15:11;11.80;99.90
23544;DHT22;11950;51.230;4.012;2024-03-29T03:17:37;11.70;99.90
23544;DHT22;11950;51.230;4.012;2024-03-29T03:20:03;11.70;99.90
23544;DHT22;11950;51.230;4.012;2024-03-29T03:22:32;11.60;99.90
23544;DHT22;11950;51.230;4.012;2024-03-29T03:24:59;11.60;99.90
23544;DHT22;11950;51.230;4.012;2024-03-29T03:27:25;11.50;99.90
23544;DHT22;11950;51.230;4.012;2024-03-29T03:29:51;11.50;99.90
23544;DHT22;11950;51.230;4.012;2024-03-29T03:32:17;11.50;99.90
23544;DHT22;11950;51.230;4.012;2024-03-29T03:34:43;11.50;99.90
23544;DHT22;11950;51.230;4.012;2024-03-29T03:37:10;11.50;99.90
23544;DHT22;11950;51.230;4.012;2024-03-29T03:39:37;11.40;99.90
23544;DHT22;11950;51.230;4.012;2024-03-29T03:42:04;11.30;99.90
23544;DHT22;11950;51.230;4.012;2024-03-29T03:44:30;11.30;99.90
23544;DHT22;11950;51.230;4.012;2024-03-29T03:46:56;11.30;99.90
23544;DHT22;11950;51.230;4.012;2024-03-29T03:49:23;11.20;99.90
23544;DHT22;11950;51.230;4.012;2024-03-29T03:51:49;11.20;99.90
23544;DHT22;11950;51.230;4.012;2024-03-29T03:54:15;11.20;99.90
23544;DHT22;11950;51.230;4.012;2024-03-29T03:56:42;11.20;99.90
23544;DHT22;11950;51.230;4.012;2024-03-29T03:59:08;11.20;99.90
23544;DHT22;11950;51.230;4.012;2024-03-29T04:01:34;11.10;99.90
23544;DHT22;11950;51.230;4.012;2024-03-29T04:04:01;11.10;99.90
23544;DHT22;11950;51.230;4.012;2024-03-29T04:06:27;11.10;99.90
23544;DHT22;11950;51.230;4.012;2024-03-29T04:08:54;11.10;99.90
23544;DHT22;11950;51.230;4.012;2024-03-29T04:11:20;11.00;99.90
23544;DHT22;11950;51.230;4.012;2024-03-29T04:13:46;11.00;99.90
23544;DHT22;11950;51.230;4.012;2024-03-29T04:16:13;11.00;99.90
23544;DHT22;11950;51.230;4.012;2024-03-29T04:18:39;11.00;99.90
23544;DHT22;11950;51.230;4.012;2024-03-29T04:21:05;10.90;99.90
23544;DHT22;11950;51.230;4.012;2024-03-29T04:23:31;10.90;99.90
23544;DHT22;11950;51.230;4.012;2024-03-29T04:25:58;10.80;99.90
23544;DHT22;11950;51.230;4.012;2024-03-29T04:28:26;10.80;99.90
23544;DHT22;11950;51.230;4.012;2024-03-29T04:30:57;10.80;99.90
23544;DHT22;11950;51.230;4.012;2024-03-29T04:33:24;10.80;99.90
23544;DHT22;11950;51.230;4.012;2024-03-29T04:36:01;10.80;99.90
23544;DHT22;11950;51.230;4.012;2024-03-29T04:38:29;10.70;99.90
23544;DHT22;11950;51.230;4.012;2024-03-29T04:40:56;10.70;99.90
23544;DHT22;11950;51.230;4.012;2024-03-29T04:43:25;10.70;99.90
23544;DHT22;11950;51.230;4.012;2024-03-29T04:46:02;10.70;99.90
23544;DHT22;11950;51.230;4.012;2024-03-29T04:48:31;10.70;99.90
23544;DHT22;11950;51.230;4.012;2024-03-29T04:50:58;10.70;99.90
23544;DHT22;11950;51.230;4.012;2024-03-29T04:53:24;10.70;99.90
23544;DHT22;11950;51.230;4.012;2024-03-29T04:55:58;10.70;99.90
23544;DHT22;11950;51.230;4.012;2024-03-29T04:58:28;10.70;99.90
23544;DHT22;11950;51.230;4.012;2024-03-29T05:00:55;10.70;99.90
23544;DHT22;11950;51.230;4.012;2024-03-29T05:03:22;10.60;99.90
23544;DHT22;11950;51.230;4.012;2024-03-29T05:05:50;10.60;99.90
23544;DHT22;11950;51.230;4.012;2024-03-29T05:08:17;10.60;99.90
23544;DHT22;11950;51.230;4.012;2024-03-29T05:10:51;10.50;99.90
23544;DHT22;11950;51.230;4.012;2024-03-29T05:13:18;10.50;99.90
23544;DHT22;11950;51.230;4.012;2024-03-29T05:15:49;10.50;99.90
23544;DHT22;11950;51.230;4.012;2024-03-29T05:18:15;10.50;99.90
23544;DHT22;11950;51.230;4.012;2024-03-29T05:20:41;10.50;99.90
23544;DHT22;11950;51.230;4.012;2024-03-29T05:23:13;10.50;99.90
23544;DHT22;11950;51.230;4.012;2024-03-29T05:25:40;10.50;99.90
23544;DHT22;11950;51.230;4.012;2024-03-29T05:28:07;10.50;99.90
23544;DHT22;11950;51.230;4.012;2024-03-29T05:30:33;10.50;99.90
23544;DHT22;11950;51.230;4.012;2024-03-29T05:33:03;10.50;99.90
23544;DHT22;11950;51.230;4.012;2024-03-29T05:35:30;10.50;99.90
23544;DHT22;11950;51.230;4.012;2024-03-29T05:37:57;10.50;99.90
23544;DHT22;11950;51.230;4.012;2024-03-29T05:40:24;10.50;99.90
23544;DHT22;11950;51.230;4.012;2024-03-29T05:42:54;10.50;99.90
23544;DHT22;11950;51.230;4.012;2024-03-29T05:45:28;10.50;99.90
23544;DHT22;11950;51.230;4.012;2024-03-29T05:47:56;10.50;99.90
23544;DHT22;11950;51.230;4.012;2024-03-29T05:50:23;10.40;99.90
23544;DHT22;11950;51.230;4.012;2024-03-29T05:52:51;10.50;99.90
23544;DHT22;11950;51.230;4.012;2024-03-29T05:55:17;10.50;99.90
23544;DHT22;11950;51.230;4.012;2024-03-29T05:57:44;10.50;99.90
23544;DHT22;11950;51.230;4.012;2024-03-29T06:00:14;10.50;99.90
23544;DHT22;11950;51.230;4.012;2024-03-29T06:02:42;10.50;99.90
23544;DHT22;11950;51.230;4.012;2024-03-29T06:05:10;10.40;99.90
23544;DHT22;11950;51.230;4.012;2024-03-29T06:07:37;10.40;99.90
23544;DHT22;11950;51.230;4.012;2024-03-29T06:10:04;10.50;99.90
23544;DHT22;11950;51.230;4.012;2024-03-29T06:12:32;10.50;99.90
23544;DHT22;11950;51.230;4.012;2024-03-29T06:14:58;10.50;99.90
23544;DHT22;11950;51.230;4.012;2024-03-29T06:17:43;10.50;99.90
23544;DHT22;11950;51.230;4.012;2024-03-29T06:20:09;10.50;99.90
23544;DHT22;11950;51.230;4.012;2024-03-29T06:22:36;10.50;99.90
23544;DHT22;11950;51.230;4.012;2024-03-29T06:25:02;10.50;99.90
23544;DHT22;11950;51.230;4.012;2024-03-29T06:27:34;10.50;99.90
23544;DHT22;11950;51.230;4.012;2024-03-29T06:30:01;10.60;99.90
23544;DHT22;11950;51.230;4.012;2024-03-29T06:32:28;10.60;99.90
23544;DHT22;11950;51.230;4.012;2024-03-29T06:34:54;10.60;99.90
23544;DHT22;11950;51.230;4.012;2024-03-29T06:37:21;10.60;99.90
23544;DHT22;11950;51.230;4.012;2024-03-29T06:39:48;10.60;99.90
23544;DHT22;11950;51.230;4.012;2024-03-29T06:42:14;10.60;99.90
23544;DHT22;11950;51.230;4.012;2024-03-29T06:44:41;10.60;99.90
23544;DHT22;11950;51.230;4.012;2024-03-29T06:47:08;10.60;99.90
23544;DHT22;11950;51.230;4.012;2024-03-29T06:49:35;10.60;99.90
23544;DHT22;11950;51.230;4.012;2024-03-29T06:52:01;10.70;99.90
23544;DHT22;11950;51.230;4.012;2024-03-29T06:54:28;10.70;99.90
23544;DHT22;11950;51.230;4.012;2024-03-29T06:56:55;10.70;99.90
23544;DHT22;11950;51.230;4.012;2024-03-29T06:59:22;10.70;99.90
23544;DHT22;11950;51.230;4.012;2024-03-29T07:01:49;10.80;99.90
23544;DHT22;11950;51.230;4.012;2024-03-29T07:04:19;10.80;99.90
23544;DHT22;11950;51.230;4.012;2024-03-29T07:06:46;10.80;99.90
23544;DHT22;11950;51.230;4.012;2024-03-29T07:09:22;10.80;99.90
23544;DHT22;11950;51.230;4.012;2024-03-29T07:11:51;10.90;99.90
23544;DHT22;11950;51.230;4.012;2024-03-29T07:14:18;10.90;99.90
23544;DHT22;11950;51.230;4.012;2024-03-29T07:16:46;10.90;99.90
23544;DHT22;11950;51.230;4.012;2024-03-29T07:19:13;11.00;99.90
23544;DHT22;11950;51.230;4.012;2024-03-29T07:21:40;11.10;99.90
23544;DHT22;11950;51.230;4.012;2024-03-29T07:24:07;11.20;99.90
23544;DHT22;11950;51.230;4.012;2024-03-29T07:26:33;11.30;99.90
23544;DHT22;11950;51.230;4.012;2024-03-29T07:28:59;11.50;99.90
23544;DHT22;11950;51.230;4.012;2024-03-29T07:31:25;11.60;99.90
23544;DHT22;11950;51.230;4.012;2024-03-29T07:33:52;11.60;99.90
23544;DHT22;11950;51.230;4.012;2024-03-29T07:36:18;11.60;99.90
23544;DHT22;11950;51.230;4.012;2024-03-29T07:38:45;11.50;99.90
23544;DHT22;11950;51.230;4.012;2024-03-29T07:41:11;11.50;99.90
23544;DHT22;11950;51.230;4.012;2024-03-29T07:43:40;11.50;99.90
23544;DHT22;11950;51.230;4.012;2024-03-29T07:46:07;11.50;99.90
23544;DHT22;11950;51.230;4.012;2024-03-29T07:48:35;11.50;99.90
23544;DHT22;11950;51.230;4.012;2024-03-29T07:51:02;11.50;99.90
23544;DHT22;11950;51.230;4.012;2024-03-29T07:53:29;11.50;99.90
23544;DHT22;11950;51.230;4.012;2024-03-29T07:55:56;11.50;99.90
23544;DHT22;11950;51.230;4.012;2024-03-29T07:58:25;11.50;99.90
23544;DHT22;11950;51.230;4.012;2024-03-29T08:00:53;11.60;99.90
23544;DHT22;11950;51.230;4.012;2024-03-29T08:03:27;11.60;99.90
23544;DHT22;11950;51.230;4.012;2024-03-29T08:05:58;11.60;99.90
23544;DHT22;11950;51.230;4.012;2024-03-29T08:08:27;11.70;99.90
23544;DHT22;11950;51.230;4.012;2024-03-29T08:10:55;11.70;99.90
23544;DHT22;11950;51.230;4.012;2024-03-29T08:13:24;11.70;99.90
23544;DHT22;11950;51.230;4.012;2024-03-29T08:16:00;11.70;99.90
23544;DHT22;11950;51.230;4.012;2024-03-29T08:18:28;11.80;99.90
23544;DHT22;11950;51.230;4.012;2024-03-29T08:20:55;11.80;99.90
23544;DHT22;11950;51.230;4.012;2024-03-29T08:23:22;11.80;99.90
23544;DHT22;11950;51.230;4.012;2024-03-29T08:25:48;11.80;99.90
23544;DHT22;11950;51.230;4.012;2024-03-29T08:28:15;11.80;99.90
23544;DHT22;11950;51.230;4.012;2024-03-29T08:30:41;11.80;99.90
23544;DHT22;11950;51.230;4.012;2024-03-29T08:33:08;11.80;99.90
23544;DHT22;11950;51.230;4.012;2024-03-29T08:35:34;11.80;99.90
23544;DHT22;11950;51.230;4.012;2024-03-29T08:38:01;11.80;99.90
23544;DHT22;11950;51.230;4.012;2024-03-29T08:40:28;11.90;99.90
23544;DHT22;11950;51.230;4.012;2024-03-29T08:42:57;11.80;99.90
23544;DHT22;11950;51.230;4.012;2024-03-29T08:45:23;11.90;99.90
23544;DHT22;11950;51.230;4.012;2024-03-29T08:47:50;11.90;99.90
23544;DHT22;11950;51.230;4.012;2024-03-29T08:50:16;12.00;99.90
23544;DHT22;11950;51.230;4.012;2024-03-29T08:52:42;12.10;99.90
23544;DHT22;11950;51.230;4.012;2024-03-29T08:55:10;12.20;99.90
23544;DHT22;11950;51.230;4.012;2024-03-29T08:57:37;12.30;99.90
23544;DHT22;11950;51.230;4.012;2024-03-29T09:00:03;12.30;99.90
23544;DHT22;11950;51.230;4.012;2024-03-29T09:02:30;12.40;99.90
23544;DHT22;11950;51.230;4.012;2024-03-29T09:04:57;12.50;99.90
23544;DHT22;11950;51.230;4.012;2024-03-29T09:07:24;12.50;99.90
23544;DHT22;11950;51.230;4.012;2024-03-29T09:09:50;12.50;99.90
23544;DHT22;11950;51.230;4.012;2024-03-29T09:12:16;12.60;99.90
23544;DHT22;11950;51.230;4.012;2024-03-29T09:14:45;12.60;99.90
23544;DHT22;11950;51.230;4.012;2024-03-29T09:17:12;12.60;99.90
23544;DHT22;11950;51.230;4.012;2024-03-29T09:19:38;12.60;99.90
23544;DHT22;11950;51.230;4.012;2024-03-29T09:22:04;12.60;99.90
23544;DHT22;11950;51.230;4.012;2024-03-29T09:24:31;12.60;99.90
23544;DHT22;11950;51.230;4.012;2024-03-29T09:27:00;12.70;99.90
23544;DHT22;11950;51.230;4.012;2024-03-29T09:29:27;12.70;99.90
23544;DHT22;11950;51.230;4.012;2024-03-29T09:31:53;12.70;99.90
23544;DHT22;11950;51.230;4.012;2024-03-29T09:34:19;12.70;99.90
23544;DHT22;11950;51.230;4.012;2024-03-29T09:36:46;12.80;99.90
23544;DHT22;11950;51.230;4.012;2024-03-29T09:39:12;12.90;99.90
23544;DHT22;11950;51.230;4.012;2024-03-29T09:41:39;13.00;99.90
23544;DHT22;11950;51.230;4.012;2024-03-29T09:44:07;13.10;99.90
23544;DHT22;11950;51.230;4.012;2024-03-29T09:46:34;13.30;99.90
23544;DHT22;11950;51.230;4.012;2024-03-29T09:49:01;13.30;99.90
23544;DHT22;11950;51.230;4.012;2024-03-29T09:51:29;13.50;99.90
23544;DHT22;11950;51.230;4.012;2024-03-29T09:53:57;13.60;99.90
23544;DHT22;11950;51.230;4.012;2024-03-29T09:56:25;13.60;99.90
23544;DHT22;11950;51.230;4.012;2024-03-29T09:58:52;13.80;99.90
23544;DHT22;11950;51.230;4.012;2024-03-29T10:01:19;13.90;99.90
23544;DHT22;11950;51.230;4.012;2024-03-29T10:03:49;13.90;99.90
23544;DHT22;11950;51.230;4.012;2024-03-29T10:06:18;13.90;99.90
23544;DHT22;11950;51.230;4.012;2024-03-29T10:08:46;14.00;99.90
23544;DHT22;11950;51.230;4.012;2024-03-29T10:11:14;14.00;99.90
23544;DHT22;11950;51.230;4.012;2024-03-29T10:13:43;14.10;99.90
23544;DHT22;11950;51.230;4.012;2024-03-29T10:16:11;14.20;99.90
23544;DHT22;11950;51.230;4.012;2024-03-29T10:18:40;14.20;99.90
23544;DHT22;11950;51.230;4.012;2024-03-29T10:21:07;14.30;99.90
23544;DHT22;11950;51.230;4.012;2024-03-29T10:23:35;14.40;99.90
23544;DHT22;11950;51.230;4.012;2024-03-29T10:26:04;14.60;99.90
23544;DHT22;11950;51.230;4.012;2024-03-29T10:28:35;14.70;99.90
23544;DHT22;11950;51.230;4.012;2024-03-29T10:31:03;14.80;99.90
23544;DHT22;11950;51.230;4.012;2024-03-29T10:33:33;15.00;99.90
23544;DHT22;11950;51.230;4.012;2024-03-29T10:36:00;15.10;99.90
23544;DHT22;11950;51.230;4.012;2024-03-29T10:38:27;15.10;99.90
23544;DHT22;11950;51.230;4.012;2024-03-29T10:40:53;15.30;99.90
23544;DHT22;11950;51.230;4.012;2024-03-29T10:43:20;15.30;99.90
23544;DHT22;11950;51.230;4.012;2024-03-29T10:45:50;15.30;99.90
23544;DHT22;11950;51.230;4.012;2024-03-29T10:48:20;15.40;99.90
23544;DHT22;11950;51.230;4.012;2024-03-29T10:50:48;15.40;99.90
23544;DHT22;11950;51.230;4.012;2024-03-29T10:53:17;15.40;99.90
23544;DHT22;11950;51.230;4.012;2024-03-29T10:55:43;15.40;99.90
23544;DHT22;11950;51.230;4.012;2024-03-29T10:58:11;15.40;99.90
23544;DHT22;11950;51.230;4.012;2024-03-29T11:00:47;15.40;99.90
23544;DHT22;11950;51.230;4.012;2024-03-29T11:05:48;15.50;99.90
23544;DHT22;11950;51.230;4.012;2024-03-29T11:08:34;15.50;99.90
23544;DHT22;11950;51.230;4.012;2024-03-29T11:11:04;15.60;99.90
23544;DHT22;11950;51.230;4.012;2024-03-29T11:13:44;15.60;99.90
23544;DHT22;11950;51.230;4.012;2024-03-29T11:16:11;15.60;99.90
23544;DHT22;11950;51.230;4.012;2024-03-29T11:18:38;15.70;99.90
23544;DHT22;11950;51.230;4.012;2024-03-29T11:21:06;15.80;99.90
23544;DHT22;11950;51.230;4.012;2024-03-29T11:23:35;15.80;99.90
23544;DHT22;11950;51.230;4.012;2024-03-29T11:26:02;15.90;99.90
23544;DHT22;11950;51.230;4.012;2024-03-29T11:28:33;16.00;99.90
23544;DHT22;11950;51.230;4.012;2024-03-29T11:31:04;16.00;99.90
23544;DHT22;11950;51.230;4.012;2024-03-29T11:33:35;16.10;99.90
23544;DHT22;11950;51.230;4.012;2024-03-29T11:38:46;16.10;99.90
23544;DHT22;11950;51.230;4.012;2024-03-29T11:41:17;16.10;99.90
23544;DHT22;11950;51.230;4.012;2024-03-29T11:43:46;16.10;99.90
23544;DHT22;11950;51.230;4.012;2024-03-29T11:46:14;16.20;99.90
23544;DHT22;11950;51.230;4.012;2024-03-29T11:48:41;16.20;99.90
23544;DHT22;11950;51.230;4.012;2024-03-29T11:51:13;16.30;99.90
23544;DHT22;11950;51.230;4.012;2024-03-29T11:53:41;16.40;99.90
23544;DHT22;11950;51.230;4.012;2024-03-29T11:56:08;16.40;99.90
23544;DHT22;11950;51.230;4.012;2024-03-29T11:58:35;16.50;99.90
23544;DHT22;11950;51.230;4.012;2024-03-29T12:01:02;16.60;99.90
23544;DHT22;11950;51.230;4.012;2024-03-29T12:03:30;16.60;99.90
23544;DHT22;11950;51.230;4.012;2024-03-29T12:05:57;16.70;99.90
23544;DHT22;11950;51.230;4.012;2024-03-29T12:08:31;16.70;99.90
23544;DHT22;11950;51.230;4.012;2024-03-29T12:10:59;16.70;99.90
23544;DHT22;11950;51.230;4.012;2024-03-29T12:13:25;16.80;99.90
23544;DHT22;11950;51.230;4.012;2024-03-29T12:15:52;16.80;99.90
23544;DHT22;11950;51.230;4.012;2024-03-29T12:18:23;16.90;99.90
23544;DHT22;11950;51.230;4.012;2024-03-29T12:20:51;17.00;99.90
23544;DHT22;11950;51.230;4.012;2024-03-29T12:23:18;17.00;99.90
23544;DHT22;11950;51.230;4.012;2024-03-29T12:25:46;16.90;99.90
23544;DHT22;11950;51.230;4.012;2024-03-29T12:28:13;17.00;99.90
23544;DHT22;11950;51.230;4.012;2024-03-29T12:30:47;17.00;99.90
23544;DHT22;11950;51.230;4.012;2024-03-29T12:33:18;17.10;99.90
23544;DHT22;11950;51.230;4.012;2024-03-29T12:35:49;17.10;99.90
23544;DHT22;11950;51.230;4.012;2024-03-29T12:38:17;17.10;99.90
23544;DHT22;11950;51.230;4.012;2024-03-29T12:40:45;17.10;99.90
23544;DHT22;11950;51.230;4.012;2024-03-29T12:43:15;17.20;99.90
23544;DHT22;11950;51.230;4.012;2024-03-29T12:45:43;17.20;99.90
23544;DHT22;11950;51.230;4.012;2024-03-29T12:48:14;17.20;99.90
23544;DHT22;11950;51.230;4.012;2024-03-29T12:50:42;17.20;99.90
23544;DHT22;11950;51.230;4.012;2024-03-29T12:53:10;17.30;99.90
23544;DHT22;11950;51.230;4.012;2024-03-29T12:55:42;17.30;99.90
23544;DHT22;11950;51.230;4.012;2024-03-29T12:58:15;17.40;99.90
23544;DHT22;11950;51.230;4.012;2024-03-29T13:00:44;17.40;99.90
23544;DHT22;11950;51.230;4.012;2024-03-29T13:03:10;17.40;99.90
23544;DHT22;11950;51.230;4.012;2024-03-29T13:05:37;17.40;99.90
23544;DHT22;11950;51.230;4.012;2024-03-29T13:08:13;17.50;99.90
23544;DHT22;11950;51.230;4.012;2024-03-29T13:10:43;17.50;99.90
23544;DHT22;11950;51.230;4.012;2024-03-29T13:13:10;17.50;99.90
23544;DHT22;11950;51.230;4.012;2024-03-29T13:15:38;17.60;99.90
23544;DHT22;11950;51.230;4.012;2024-03-29T13:18:05;17.50;99.90
23544;DHT22;11950;51.230;4.012;2024-03-29T13:20:34;17.50;99.90
23544;DHT22;11950;51.230;4.012;2024-03-29T13:23:03;17.50;99.90
23544;DHT22;11950;51.230;4.012;2024-03-29T13:25:30;17.50;99.90
23544;DHT22;11950;51.230;4.012;2024-03-29T13:27:56;17.40;99.90
23544;DHT22;11950;51.230;4.012;2024-03-29T13:30:26;17.40;99.90
23544;DHT22;11950;51.230;4.012;2024-03-29T13:32:53;17.40;99.90
23544;DHT22;11950;51.230;4.012;2024-03-29T13:35:20;17.40;99.90
23544;DHT22;11950;51.230;4.012;2024-03-29T13:37:51;17.40;99.90
23544;DHT22;11950;51.230;4.012;2024-03-29T13:40:22;17.50;99.90
23544;DHT22;11950;51.230;4.012;2024-03-29T13:42:48;17.50;99.90
23544;DHT22;11950;51.230;4.012;2024-03-29T13:45:15;17.60;99.90
23544;DHT22;11950;51.230;4.012;2024-03-29T13:47:43;17.60;99.90
23544;DHT22;11950;51.230;4.012;2024-03-29T13:50:11;17.60;99.90
23544;DHT22;11950;51.230;4.012;2024-03-29T13:52:37;17.60;99.90
23544;DHT22;11950;51.230;4.012;2024-03-29T13:55:04;17.50;99.90
23544;DHT22;11950;51.230;4.012;2024-03-29T13:57:31;17.50;99.90
23544;DHT22;11950;51.230;4.012;2024-03-29T14:00:00;17.50;99.90
23544;DHT22;11950;51.230;4.012;2024-03-29T14:02:28;17.50;99.90
23544;DHT22;11950;51.230;4.012;2024-03-29T14:04:57;17.50;99.90
23544;DHT22;11950;51.230;4.012;2024-03-29T14:07:24;17.50;99.90
23544;DHT22;11950;51.230;4.012;2024-03-29T14:09:51;17.50;99.90
23544;DHT22;11950;51.230;4.012;2024-03-29T14:12:18;17.40;99.90
23544;DHT22;11950;51.230;4.012;2024-03-29T14:14:48;17.40;99.90
23544;DHT22;11950;51.230;4.012;2024-03-29T14:17:17;17.40;99.90
23544;DHT22;11950;51.230;4.012;2024-03-29T14:19:43;17.30;99.90
23544;DHT22;11950;51.230;4.012;2024-03-29T14:22:10;17.30;99.90
23544;DHT22;11950;51.230;4.012;2024-03-29T14:24:38;17.20;99.90
23544;DHT22;11950;51.230;4.012;2024-03-29T14:27:06;17.20;99.90
23544;DHT22;11950;51.230;4.012;2024-03-29T14:29:33;17.20;99.90
23544;DHT22;11950;51.230;4.012;2024-03-29T14:32:00;17.20;99.90
23544;DHT22;11950;51.230;4.012;2024-03-29T14:34:27;17.20;99.90
23544;DHT22;11950;51.230;4.012;2024-03-29T14:36:54;17.20;99.90
23544;DHT22;11950;51.230;4.012;2024-03-29T14:39:20;17.10;99.90
23544;DHT22;11950;51.230;4.012;2024-03-29T14:41:50;17.10;99.90
23544;DHT22;11950;51.230;4.012;2024-03-29T14:44:18;17.10;99.90
23544;DHT22;11950;51.230;4.012;2024-03-29T14:46:47;17.20;99.90
23544;DHT22;11950;51.230;4.012;2024-03-29T14:49:13;17.20;99.90
23544;DHT22;11950;51.230;4.012;2024-03-29T14:51:40;17.20;99.90
23544;DHT22;11950;51.230;4.012;2024-03-29T14:54:07;17.20;99.90
23544;DHT22;11950;51.230;4.012;2024-03-29T14:56:34;17.10;99.90
23544;DHT22;11950;51.230;4.012;2024-03-29T14:59:03;17.10;99.90
23544;DHT22;11950;51.230;4.012;2024-03-29T15:01:31;17.10;99.90
23544;DHT22;11950;51.230;4.012;2024-03-29T15:03:58;17.10;99.90
23544;DHT22;11950;51.230;4.012;2024-03-29T15:06:25;17.10;99.90
23544;DHT22;11950;51.230;4.012;2024-03-29T15:08:55;17.20;99.90
23544;DHT22;11950;51.230;4.012;2024-03-29T15:11:26;17.10;99.90
23544;DHT22;11950;51.230;4.012;2024-03-29T15:13:53;17.10;99.90
23544;DHT22;11950;51.230;4.012;2024-03-29T15:16:19;17.10;99.90
23544;DHT22;11950;51.230;4.012;2024-03-29T15:18:47;17.00;99.90
23544;DHT22;11950;51.230;4.012;2024-03-29T15:21:13;17.10;99.90
23544;DHT22;11950;51.230;4.012;2024-03-29T15:23:39;17.00;99.90
23544;DHT22;11950;51.230;4.012;2024-03-29T15:26:05;17.00;99.90
23544;DHT22;11950;51.230;4.012;2024-03-29T15:28:32;16.90;99.90
23544;DHT22;11950;51.230;4.012;2024-03-29T15:31:19;16.90;99.90
23544;DHT22;11950;51.230;4.012;2024-03-29T15:33:49;16.90;99.90
23544;DHT22;11950;51.230;4.012;2024-03-29T15:36:16;17.00;99.90
23544;DHT22;11950;51.230;4.012;2024-03-29T15:38:43;17.00;99.90